sensor_id;sensor_type;location;lat;lon;timestamp;pressure;altitude;pressure_sealevel;temperature;humidity
35878;BME280;21982;49.804;24.072;2023-09-08T00:00:36;98188.88;;;18.54;58.26
35878;BME280;21982;49.804;24.072;2023-09-08T00:03:02;98147.22;;;18.20;58.50
35878;BME280;21982;49.804;24.072;2023-09-08T00:05:28;98191.78;;;18.46;58.66
35878;BME280;21982;49.804;24.072;2023-09-08T00:07:53;98042.50;;;17.46;58.61
35878;BME280;21982;49.804;24.072;2023-09-08T00:10:18;98193.88;;;18.44;58.54
35878;BME280;21982;49.804;24.072;2023-09-08T00:12:44;98202.94;;;18.43;58.65
35878;BME280;21982;49.804;24.072;2023-09-08T00:15:14;98185.63;;;18.46;58.43
35878;BME280;21982;49.804;24.072;2023-09-08T00:18:00;98181.78;;;18.35;58.09
35878;BME280;21982;49.804;24.072;2023-09-08T00:20:28;98045.19;;;17.46;58.59
35878;BME280;21982;49.804;24.072;2023-09-08T00:22:53;98204.28;;;18.34;58.65
35878;BME280;21982;49.804;24.072;2023-09-08T00:25:19;98192.72;;;18.33;58.33
35878;BME280;21982;49.804;24.072;2023-09-08T00:27:44;98082.19;;;17.62;58.33
35878;BME280;21982;49.804;24.072;2023-09-08T00:30:10;97892.47;;;16.38;58.11
35878;BME280;21982;49.804;24.072;2023-09-08T00:32:35;98121.66;;;17.86;58.20
35878;BME280;21982;49.804;24.072;2023-09-08T00:35:01;98143.50;;;17.83;58.63
35878;BME280;21982;49.804;24.072;2023-09-08T00:37:26;98189.69;;;18.23;58.27
35878;BME280;21982;49.804;24.072;2023-09-08T00:39:52;98201.22;;;18.24;58.74
35878;BME280;21982;49.804;24.072;2023-09-08T00:42:17;98155.00;;;17.97;58.20
35878;BME280;21982;49.804;24.072;2023-09-08T00:44:42;98203.94;;;18.17;58.43
35878;BME280;21982;49.804;24.072;2023-09-08T00:47:08;98096.00;;;17.59;58.28
35878;BME280;21982;49.804;24.072;2023-09-08T00:49:33;98056.53;;;17.34;58.28
35878;BME280;21982;49.804;24.072;2023-09-08T00:51:59;98159.53;;;17.96;58.40
35878;BME280;21982;49.804;24.072;2023-09-08T00:54:24;98076.50;;;17.38;58.33
35878;BME280;21982;49.804;24.072;2023-09-08T00:56:55;98199.81;;;18.15;58.29
35878;BME280;21982;49.804;24.072;2023-09-08T00:59:21;98156.91;;;17.83;58.56
35878;BME280;21982;49.804;24.072;2023-09-08T01:01:47;98186.66;;;18.06;58.36
35878;BME280;21982;49.804;24.072;2023-09-08T01:04:13;98036.66;;;17.17;58.20
35878;BME280;21982;49.804;24.072;2023-09-08T01:06:38;98189.13;;;18.08;57.97
35878;BME280;21982;49.804;24.072;2023-09-08T01:09:04;97983.69;;;16.88;57.89
35878;BME280;21982;49.804;24.072;2023-09-08T01:11:30;97983.03;;;16.92;57.82
35878;BME280;21982;49.804;24.072;2023-09-08T01:13:56;98180.44;;;18.13;57.77
35878;BME280;21982;49.804;24.072;2023-09-08T01:16:21;98182.53;;;18.11;57.98
35878;BME280;21982;49.804;24.072;2023-09-08T01:18:47;98159.72;;;18.01;57.78
35878;BME280;21982;49.804;24.072;2023-09-08T01:26:21;98177.56;;;18.14;57.63
35878;BME280;21982;49.804;24.072;2023-09-08T01:28:49;98038.69;;;17.28;57.62
35878;BME280;21982;49.804;24.072;2023-09-08T01:31:15;97931.94;;;16.49;57.71
35878;BME280;21982;49.804;24.072;2023-09-08T01:33:41;97934.19;;;16.52;57.84
35878;BME280;21982;49.804;24.072;2023-09-08T01:36:08;98177.19;;;18.04;57.94
35878;BME280;21982;49.804;24.072;2023-09-08T01:38:34;98103.44;;;17.57;58.08
35878;BME280;21982;49.804;24.072;2023-09-08T01:40:59;98046.56;;;17.03;57.89
35878;BME280;21982;49.804;24.072;2023-09-08T01:43:27;97922.88;;;16.43;58.02
35878;BME280;21982;49.804;24.072;2023-09-08T01:45:52;98173.78;;;17.90;58.28
35878;BME280;21982;49.804;24.072;2023-09-08T01:48:17;98046.53;;;17.17;58.22
35878;BME280;21982;49.804;24.072;2023-09-08T01:50:43;98106.91;;;17.64;57.99
35878;BME280;21982;49.804;24.072;2023-09-08T01:53:08;98135.66;;;17.88;58.05
35878;BME280;21982;49.804;24.072;2023-09-08T01:55:34;98159.47;;;18.03;58.05
35878;BME280;21982;49.804;24.072;2023-09-08T01:57:59;97987.19;;;16.82;58.30
35878;BME280;21982;49.804;24.072;2023-09-08T02:00:25;98119.69;;;17.62;58.19
35878;BME280;21982;49.804;24.072;2023-09-08T02:02:50;97894.59;;;16.09;58.67
35878;BME280;21982;49.804;24.072;2023-09-08T02:05:16;98079.81;;;17.34;58.44
35878;BME280;21982;49.804;24.072;2023-09-08T02:07:41;98156.91;;;17.83;58.61
35878;BME280;21982;49.804;24.072;2023-09-08T02:10:07;98157.13;;;17.82;58.57
35878;BME280;21982;49.804;24.072;2023-09-08T02:12:32;98159.78;;;17.82;58.72
35878;BME280;21982;49.804;24.072;2023-09-08T02:14:58;98109.00;;;17.55;58.50
35878;BME280;21982;49.804;24.072;2023-09-08T02:17:25;98154.81;;;17.92;58.48
35878;BME280;21982;49.804;24.072;2023-09-08T02:19:50;98141.84;;;17.89;58.42
35878;BME280;21982;49.804;24.072;2023-09-08T02:22:15;98073.97;;;17.57;58.31
35878;BME280;21982;49.804;24.072;2023-09-08T02:24:41;98136.22;;;17.97;58.22
35878;BME280;21982;49.804;24.072;2023-09-08T02:27:06;98159.16;;;18.24;58.07
35878;BME280;21982;49.804;24.072;2023-09-08T02:29:32;98153.53;;;18.32;58.03
35878;BME280;21982;49.804;24.072;2023-09-08T02:31:57;98136.09;;;18.17;57.41
35878;BME280;21982;49.804;24.072;2023-09-08T02:34:23;98145.72;;;18.31;57.52
35878;BME280;21982;49.804;24.072;2023-09-08T02:36:48;98123.91;;;18.21;57.56
35878;BME280;21982;49.804;24.072;2023-09-08T02:39:16;98035.41;;;17.64;57.51
35878;BME280;21982;49.804;24.072;2023-09-08T02:41:41;97874.50;;;16.65;57.57
35878;BME280;21982;49.804;24.072;2023-09-08T02:44:06;98154.75;;;18.36;57.42
35878;BME280;21982;49.804;24.072;2023-09-08T02:46:32;98153.94;;;18.36;57.72
35878;BME280;21982;49.804;24.072;2023-09-08T02:48:57;98084.50;;;17.96;57.62
35878;BME280;21982;49.804;24.072;2023-09-08T02:51:22;98151.41;;;18.41;57.60
35878;BME280;21982;49.804;24.072;2023-09-08T02:53:48;98151.41;;;18.41;57.31
35878;BME280;21982;49.804;24.072;2023-09-08T02:56:13;98145.63;;;18.37;57.32
35878;BME280;21982;49.804;24.072;2023-09-08T02:58:39;98148.19;;;18.32;57.59
35878;BME280;21982;49.804;24.072;2023-09-08T03:01:11;98146.75;;;18.30;57.36
35878;BME280;21982;49.804;24.072;2023-09-08T03:03:38;98142.50;;;18.16;57.60
35878;BME280;21982;49.804;24.072;2023-09-08T03:06:04;98093.63;;;17.82;57.90
35878;BME280;21982;49.804;24.072;2023-09-08T03:08:29;98111.28;;;17.96;57.75
35878;BME280;21982;49.804;24.072;2023-09-08T03:10:56;98034.88;;;17.49;57.95
35878;BME280;21982;49.804;24.072;2023-09-08T03:13:22;98134.72;;;18.07;57.98
35878;BME280;21982;49.804;24.072;2023-09-08T03:15:47;98123.03;;;17.95;57.74
35878;BME280;21982;49.804;24.072;2023-09-08T03:18:13;98146.84;;;18.10;57.96
35878;BME280;21982;49.804;24.072;2023-09-08T03:20:38;98148.31;;;18.06;57.99
35878;BME280;21982;49.804;24.072;2023-09-08T03:23:05;98100.69;;;17.70;58.16
35878;BME280;21982;49.804;24.072;2023-09-08T03:25:31;98138.09;;;17.96;58.17
35878;BME280;21982;49.804;24.072;2023-09-08T03:27:56;98141.59;;;17.97;58.21
35878;BME280;21982;49.804;24.072;2023-09-08T03:30:21;98099.06;;;17.69;58.41
35878;BME280;21982;49.804;24.072;2023-09-08T03:32:47;98131.56;;;17.79;58.36
35878;BME280;21982;49.804;24.072;2023-09-08T03:35:12;98072.19;;;17.37;58.27
35878;BME280;21982;49.804;24.072;2023-09-08T03:37:39;98141.88;;;17.75;58.40
35878;BME280;21982;49.804;24.072;2023-09-08T03:40:05;98139.44;;;17.67;58.84
35878;BME280;21982;49.804;24.072;2023-09-08T03:42:32;98085.22;;;17.27;58.68
35878;BME280;21982;49.804;24.072;2023-09-08T03:44:57;98139.88;;;17.58;59.03
35878;BME280;21982;49.804;24.072;2023-09-08T03:47:22;98112.75;;;17.34;58.88
35878;BME280;21982;49.804;24.072;2023-09-08T03:49:48;98132.50;;;17.47;59.22
35878;BME280;21982;49.804;24.072;2023-09-08T03:52:13;98115.84;;;17.38;59.29
35878;BME280;21982;49.804;24.072;2023-09-08T03:54:38;98077.41;;;17.19;59.06
35878;BME280;21982;49.804;24.072;2023-09-08T03:57:04;98067.97;;;17.17;59.55
35878;BME280;21982;49.804;24.072;2023-09-08T03:59:29;98065.25;;;17.23;59.43
35878;BME280;21982;49.804;24.072;2023-09-08T04:01:55;98118.03;;;17.61;59.49
35878;BME280;21982;49.804;24.072;2023-09-08T04:04:20;98106.09;;;17.57;59.28
35878;BME280;21982;49.804;24.072;2023-09-08T04:06:46;98091.13;;;17.42;59.27
35878;BME280;21982;49.804;24.072;2023-09-08T04:09:11;98080.63;;;17.41;59.15
35878;BME280;21982;49.804;24.072;2023-09-08T04:11:36;97995.19;;;16.88;59.20
35878;BME280;21982;49.804;24.072;2023-09-08T04:14:02;98124.38;;;17.73;59.20
35878;BME280;21982;49.804;24.072;2023-09-08T04:16:33;98130.75;;;17.79;59.01
35878;BME280;21982;49.804;24.072;2023-09-08T04:19:03;97966.41;;;16.84;58.95
35878;BME280;21982;49.804;24.072;2023-09-08T04:21:29;98122.06;;;17.83;59.00
35878;BME280;21982;49.804;24.072;2023-09-08T04:23:54;97990.13;;;17.18;58.58
35878;BME280;21982;49.804;24.072;2023-09-08T04:26:19;98105.63;;;18.11;58.30
35878;BME280;21982;49.804;24.072;2023-09-08T04:28:45;98006.44;;;17.86;57.73
35878;BME280;21982;49.804;24.072;2023-09-08T04:31:10;98124.94;;;18.76;57.37
35878;BME280;21982;49.804;24.072;2023-09-08T04:33:36;98108.16;;;18.62;57.54
35878;BME280;21982;49.804;24.072;2023-09-08T04:36:01;98096.56;;;18.68;57.17
35878;BME280;21982;49.804;24.072;2023-09-08T04:38:27;98041.09;;;18.62;56.62
35878;BME280;21982;49.804;24.072;2023-09-08T04:40:52;98135.22;;;19.77;55.58
35878;BME280;21982;49.804;24.072;2023-09-08T04:43:17;98132.91;;;20.11;54.83
35878;BME280;21982;49.804;24.072;2023-09-08T04:45:43;98031.13;;;19.72;54.21
35878;BME280;21982;49.804;24.072;2023-09-08T04:48:08;98075.03;;;20.38;53.72
35878;BME280;21982;49.804;24.072;2023-09-08T04:50:33;98032.59;;;20.40;53.05
35878;BME280;21982;49.804;24.072;2023-09-08T04:53:02;97940.88;;;20.06;52.69
35878;BME280;21982;49.804;24.072;2023-09-08T04:55:28;98133.78;;;21.86;51.54
35878;BME280;21982;49.804;24.072;2023-09-08T04:57:53;98019.50;;;21.87;50.48
35878;BME280;21982;49.804;24.072;2023-09-08T05:00:19;98030.56;;;22.53;48.95
35878;BME280;21982;49.804;24.072;2023-09-08T05:02:44;98133.03;;;23.70;47.98
35878;BME280;21982;49.804;24.072;2023-09-08T05:05:10;98129.81;;;24.22;47.37
35878;BME280;21982;49.804;24.072;2023-09-08T05:07:35;98130.25;;;24.67;46.18
35878;BME280;21982;49.804;24.072;2023-09-08T05:10:02;98104.38;;;24.82;45.48
35878;BME280;21982;49.804;24.072;2023-09-08T05:12:27;98032.53;;;24.74;44.65
35878;BME280;21982;49.804;24.072;2023-09-08T05:14:53;98022.19;;;25.13;44.66
35878;BME280;21982;49.804;24.072;2023-09-08T05:17:23;98009.91;;;25.63;43.23
35878;BME280;21982;49.804;24.072;2023-09-08T05:19:49;97926.84;;;25.31;42.60
35878;BME280;21982;49.804;24.072;2023-09-08T05:22:14;98130.78;;;26.06;42.83
35878;BME280;21982;49.804;24.072;2023-09-08T05:24:41;98035.31;;;24.47;43.71
35878;BME280;21982;49.804;24.072;2023-09-08T05:27:06;97956.91;;;23.13;45.05
35878;BME280;21982;49.804;24.072;2023-09-08T05:29:31;98113.94;;;23.55;45.96
35878;BME280;21982;49.804;24.072;2023-09-08T05:31:57;98133.25;;;23.47;46.50
35878;BME280;21982;49.804;24.072;2023-09-08T05:34:22;98124.16;;;24.23;46.03
35878;BME280;21982;49.804;24.072;2023-09-08T05:36:47;98109.63;;;25.41;44.44
35878;BME280;21982;49.804;24.072;2023-09-08T05:39:14;98104.28;;;26.59;42.44
35878;BME280;21982;49.804;24.072;2023-09-08T05:41:40;98108.19;;;27.53;40.53
35878;BME280;21982;49.804;24.072;2023-09-08T05:44:05;98063.00;;;27.72;39.62
35878;BME280;21982;49.804;24.072;2023-09-08T05:46:31;98059.69;;;28.24;38.65
35878;BME280;21982;49.804;24.072;2023-09-08T05:48:56;98089.19;;;28.46;38.65
35878;BME280;21982;49.804;24.072;2023-09-08T05:51:22;98122.56;;;28.67;38.50
35878;BME280;21982;49.804;24.072;2023-09-08T05:53:47;98080.41;;;28.54;38.38
35878;BME280;21982;49.804;24.072;2023-09-08T05:56:13;98160.19;;;29.28;38.19
35878;BME280;21982;49.804;24.072;2023-09-08T05:58:38;98151.44;;;29.60;37.48
35878;BME280;21982;49.804;24.072;2023-09-08T06:01:03;98145.78;;;29.99;37.37
35878;BME280;21982;49.804;24.072;2023-09-08T06:03:29;98154.88;;;30.51;36.37
35878;BME280;21982;49.804;24.072;2023-09-08T06:05:56;98103.13;;;30.59;35.79
35878;BME280;21982;49.804;24.072;2023-09-08T06:08:21;98092.34;;;31.14;34.72
35878;BME280;21982;49.804;24.072;2023-09-08T06:10:47;98138.56;;;31.29;34.13
35878;BME280;21982;49.804;24.072;2023-09-08T06:13:12;98143.09;;;30.88;34.91
35878;BME280;21982;49.804;24.072;2023-09-08T06:15:37;98131.19;;;30.46;35.45
35878;BME280;21982;49.804;24.072;2023-09-08T06:18:03;98135.91;;;30.22;35.65
35878;BME280;21982;49.804;24.072;2023-09-08T06:20:30;98148.16;;;30.06;35.39
35878;BME280;21982;49.804;24.072;2023-09-08T06:22:55;98100.84;;;29.86;35.86
35878;BME280;21982;49.804;24.072;2023-09-08T06:25:22;98137.06;;;30.16;35.31
35878;BME280;21982;49.804;24.072;2023-09-08T06:27:51;98148.00;;;30.53;35.16
35878;BME280;21982;49.804;24.072;2023-09-08T06:30:17;98135.25;;;30.49;34.83
35878;BME280;21982;49.804;24.072;2023-09-08T06:32:43;98116.69;;;30.64;34.73
35878;BME280;21982;49.804;24.072;2023-09-08T06:35:08;98008.81;;;30.24;34.32
35878;BME280;21982;49.804;24.072;2023-09-08T06:37:38;98096.19;;;31.13;33.70
35878;BME280;21982;49.804;24.072;2023-09-08T06:40:04;97905.97;;;30.47;33.23
35878;BME280;21982;49.804;24.072;2023-09-08T06:42:30;98155.13;;;32.56;32.92
35878;BME280;21982;49.804;24.072;2023-09-08T06:44:55;98108.44;;;32.92;31.93
35878;BME280;21982;49.804;24.072;2023-09-08T06:47:20;98153.63;;;33.79;31.09
35878;BME280;21982;49.804;24.072;2023-09-08T06:49:46;98133.34;;;34.32;30.85
35878;BME280;21982;49.804;24.072;2023-09-08T06:52:12;98128.84;;;34.62;30.33
35878;BME280;21982;49.804;24.072;2023-09-08T06:54:37;98117.66;;;34.67;30.07
35878;BME280;21982;49.804;24.072;2023-09-08T06:57:03;98145.38;;;35.43;29.36
35878;BME280;21982;49.804;24.072;2023-09-08T06:59:28;98089.09;;;35.15;28.93
35878;BME280;21982;49.804;24.072;2023-09-08T07:01:54;98099.97;;;35.03;29.54
35878;BME280;21982;49.804;24.072;2023-09-08T07:04:19;98146.13;;;35.06;29.78
35878;BME280;21982;49.804;24.072;2023-09-08T07:06:44;98077.56;;;34.40;29.96
35878;BME280;21982;49.804;24.072;2023-09-08T07:09:11;98156.66;;;34.78;30.25
35878;BME280;21982;49.804;24.072;2023-09-08T07:11:37;98136.75;;;34.72;30.12
35878;BME280;21982;49.804;24.072;2023-09-08T07:14:03;98151.47;;;35.02;29.98
35878;BME280;21982;49.804;24.072;2023-09-08T07:16:28;98096.63;;;34.71;29.51
35878;BME280;21982;49.804;24.072;2023-09-08T07:18:53;98102.78;;;34.68;29.66
35878;BME280;21982;49.804;24.072;2023-09-08T07:21:19;98112.09;;;35.10;29.61
35878;BME280;21982;49.804;24.072;2023-09-08T07:23:44;97989.22;;;34.59;28.76
35878;BME280;21982;49.804;24.072;2023-09-08T07:26:10;98090.38;;;35.64;28.56
35878;BME280;21982;49.804;24.072;2023-09-08T07:28:35;98123.94;;;35.96;28.58
35878;BME280;21982;49.804;24.072;2023-09-08T07:31:04;98081.97;;;35.60;28.97
35878;BME280;21982;49.804;24.072;2023-09-08T07:33:30;98156.28;;;35.78;28.80
35878;BME280;21982;49.804;24.072;2023-09-08T07:35:56;98133.97;;;35.62;28.75
35878;BME280;21982;49.804;24.072;2023-09-08T07:38:21;98141.19;;;35.75;28.58
35878;BME280;21982;49.804;24.072;2023-09-08T07:40:46;98130.69;;;35.69;28.65
35878;BME280;21982;49.804;24.072;2023-09-08T07:43:12;98155.88;;;35.97;28.80
35878;BME280;21982;49.804;24.072;2023-09-08T07:45:37;97979.94;;;34.81;28.34
35878;BME280;21982;49.804;24.072;2023-09-08T07:48:05;98027.72;;;35.14;28.52
35878;BME280;21982;49.804;24.072;2023-09-08T07:50:31;98025.84;;;35.36;28.30
35878;BME280;21982;49.804;24.072;2023-09-08T07:52:56;98023.81;;;35.53;28.23
35878;BME280;21982;49.804;24.072;2023-09-08T07:55:23;98157.34;;;36.44;27.71
35878;BME280;21982;49.804;24.072;2023-09-08T07:57:50;98023.81;;;35.74;27.62
35878;BME280;21982;49.804;24.072;2023-09-08T08:00:16;98149.69;;;36.29;27.80
35878;BME280;21982;49.804;24.072;2023-09-08T08:02:51;98040.69;;;35.52;27.35
35878;BME280;21982;49.804;24.072;2023-09-08T08:05:17;98103.22;;;35.89;27.79
35878;BME280;21982;49.804;24.072;2023-09-08T08:07:43;98122.03;;;36.08;27.50
35878;BME280;21982;49.804;24.072;2023-09-08T08:10:09;98136.59;;;36.17;27.12
35878;BME280;21982;49.804;24.072;2023-09-08T08:12:36;98139.78;;;36.28;27.29
35878;BME280;21982;49.804;24.072;2023-09-08T08:15:04;98143.34;;;36.29;27.91
35878;BME280;21982;49.804;24.072;2023-09-08T08:17:30;98140.34;;;36.13;27.48
35878;BME280;21982;49.804;24.072;2023-09-08T08:19:56;98109.00;;;36.17;27.83
35878;BME280;21982;49.804;24.072;2023-09-08T08:22:25;98081.38;;;36.47;27.39
35878;BME280;21982;49.804;24.072;2023-09-08T08:24:50;98129.94;;;36.60;27.19
35878;BME280;21982;49.804;24.072;2023-09-08T08:27:16;98136.75;;;36.63;27.53
35878;BME280;21982;49.804;24.072;2023-09-08T08:29:41;98026.69;;;35.86;27.10
35878;BME280;21982;49.804;24.072;2023-09-08T08:32:07;98027.63;;;36.11;27.74
35878;BME280;21982;49.804;24.072;2023-09-08T08:34:32;98074.84;;;36.51;26.85
35878;BME280;21982;49.804;24.072;2023-09-08T08:36:57;98140.16;;;37.13;26.97
35878;BME280;21982;49.804;24.072;2023-09-08T08:39:23;97951.38;;;36.15;26.92
35878;BME280;21982;49.804;24.072;2023-09-08T08:41:48;98155.78;;;37.42;26.71
35878;BME280;21982;49.804;24.072;2023-09-08T08:44:15;98144.09;;;37.70;26.11
35878;BME280;21982;49.804;24.072;2023-09-08T08:46:42;98069.91;;;37.60;25.90
35878;BME280;21982;49.804;24.072;2023-09-08T08:49:09;98107.69;;;37.80;25.81
35878;BME280;21982;49.804;24.072;2023-09-08T08:51:36;98151.91;;;38.56;25.30
35878;BME280;21982;49.804;24.072;2023-09-08T08:54:02;98136.41;;;39.08;25.00
35878;BME280;21982;49.804;24.072;2023-09-08T08:56:31;97994.66;;;38.90;24.18
35878;BME280;21982;49.804;24.072;2023-09-08T08:58:57;98136.44;;;39.39;23.42
35878;BME280;21982;49.804;24.072;2023-09-08T09:01:30;98132.28;;;38.74;23.86
35878;BME280;21982;49.804;24.072;2023-09-08T09:03:57;98021.25;;;37.95;24.24
35878;BME280;21982;49.804;24.072;2023-09-08T09:06:23;98103.34;;;39.31;23.30
35878;BME280;21982;49.804;24.072;2023-09-08T09:08:48;98134.91;;;40.24;22.72
35878;BME280;21982;49.804;24.072;2023-09-08T09:11:14;98125.00;;;39.41;22.66
35878;BME280;21982;49.804;24.072;2023-09-08T09:13:39;98126.78;;;38.62;23.43
35878;BME280;21982;49.804;24.072;2023-09-08T09:16:05;98125.28;;;38.64;23.46
35878;BME280;21982;49.804;24.072;2023-09-08T09:18:55;98117.22;;;39.31;22.45
35878;BME280;21982;49.804;24.072;2023-09-08T09:21:21;98120.47;;;38.49;22.91
35878;BME280;21982;49.804;24.072;2023-09-08T09:23:46;98105.47;;;37.85;23.57
35878;BME280;21982;49.804;24.072;2023-09-08T09:26:23;98113.28;;;38.20;23.49
35878;BME280;21982;49.804;24.072;2023-09-08T09:28:49;98114.41;;;38.71;22.91
35878;BME280;21982;49.804;24.072;2023-09-08T09:31:14;97994.13;;;36.87;22.74
35878;BME280;21982;49.804;24.072;2023-09-08T09:33:40;98137.00;;;36.49;23.82
35878;BME280;21982;49.804;24.072;2023-09-08T09:36:05;98068.53;;;35.12;24.84
35878;BME280;21982;49.804;24.072;2023-09-08T09:38:31;98111.78;;;35.58;24.35
35878;BME280;21982;49.804;24.072;2023-09-08T09:41:00;98106.88;;;36.44;24.33
35878;BME280;21982;49.804;24.072;2023-09-08T09:43:27;98072.50;;;37.07;23.69
35878;BME280;21982;49.804;24.072;2023-09-08T09:45:53;98097.16;;;38.22;23.03
35878;BME280;21982;49.804;24.072;2023-09-08T09:48:19;98095.13;;;37.82;22.70
35878;BME280;21982;49.804;24.072;2023-09-08T09:50:45;98099.47;;;37.47;23.12
35878;BME280;21982;49.804;24.072;2023-09-08T09:53:15;98048.47;;;37.81;22.79
35878;BME280;21982;49.804;24.072;2023-09-08T09:55:43;98022.25;;;37.75;22.03
35878;BME280;21982;49.804;24.072;2023-09-08T09:58:10;97954.66;;;37.48;22.27
35878;BME280;21982;49.804;24.072;2023-09-08T10:00:38;97973.81;;;38.21;21.94
35878;BME280;21982;49.804;24.072;2023-09-08T10:03:05;97999.59;;;38.81;21.67
35878;BME280;21982;49.804;24.072;2023-09-08T10:05:31;98067.38;;;38.87;21.57
35878;BME280;21982;49.804;24.072;2023-09-08T10:07:57;98002.00;;;37.99;22.14
35878;BME280;21982;49.804;24.072;2023-09-08T10:10:24;98091.88;;;38.57;22.20
35878;BME280;21982;49.804;24.072;2023-09-08T10:12:56;98093.06;;;38.72;21.88
35878;BME280;21982;49.804;24.072;2023-09-08T10:15:23;98078.97;;;39.36;21.43
35878;BME280;21982;49.804;24.072;2023-09-08T10:17:54;98003.47;;;39.59;21.07
35878;BME280;21982;49.804;24.072;2023-09-08T10:20:27;97991.75;;;39.65;20.75
35878;BME280;21982;49.804;24.072;2023-09-08T10:23:22;98080.84;;;39.32;21.29
35878;BME280;21982;49.804;24.072;2023-09-08T10:25:53;98026.13;;;38.26;21.58
35878;BME280;21982;49.804;24.072;2023-09-08T10:28:22;98083.59;;;37.44;22.89
35878;BME280;21982;49.804;24.072;2023-09-08T10:30:48;97939.53;;;35.73;22.94
35878;BME280;21982;49.804;24.072;2023-09-08T10:33:15;98057.34;;;35.17;24.64
35878;BME280;21982;49.804;24.072;2023-09-08T10:35:42;98075.75;;;34.10;24.93
35878;BME280;21982;49.804;24.072;2023-09-08T10:38:31;98076.50;;;33.27;25.85
35878;BME280;21982;49.804;24.072;2023-09-08T10:43:42;98067.94;;;32.22;27.60
35878;BME280;21982;49.804;24.072;2023-09-08T10:46:09;98036.41;;;31.97;27.85
35878;BME280;21982;49.804;24.072;2023-09-08T10:48:44;98059.72;;;32.22;27.91
35878;BME280;21982;49.804;24.072;2023-09-08T10:51:13;97981.94;;;32.72;27.70
35878;BME280;21982;49.804;24.072;2023-09-08T10:53:39;97987.13;;;34.47;26.83
35878;BME280;21982;49.804;24.072;2023-09-08T10:56:05;98003.56;;;35.79;24.73
35878;BME280;21982;49.804;24.072;2023-09-08T10:58:35;98031.84;;;36.83;24.33
35878;BME280;21982;49.804;24.072;2023-09-08T11:01:04;98049.06;;;37.74;24.09
35878;BME280;21982;49.804;24.072;2023-09-08T11:06:08;97926.19;;;38.12;22.79
35878;BME280;21982;49.804;24.072;2023-09-08T11:08:37;98020.75;;;38.89;22.66
35878;BME280;21982;49.804;24.072;2023-09-08T11:11:02;97995.47;;;39.38;22.39
35878;BME280;21982;49.804;24.072;2023-09-08T11:13:29;98048.34;;;40.54;21.75
35878;BME280;21982;49.804;24.072;2023-09-08T11:15:55;98050.66;;;41.36;21.15
35878;BME280;21982;49.804;24.072;2023-09-08T11:18:34;97982.22;;;41.80;20.67
35878;BME280;21982;49.804;24.072;2023-09-08T11:21:04;98052.09;;;42.69;19.99
35878;BME280;21982;49.804;24.072;2023-09-08T11:23:32;97852.44;;;41.05;19.77
35878;BME280;21982;49.804;24.072;2023-09-08T11:25:59;97999.97;;;41.72;19.74
35878;BME280;21982;49.804;24.072;2023-09-08T11:28:28;97990.38;;;40.71;19.56
35878;BME280;21982;49.804;24.072;2023-09-08T11:30:55;98038.19;;;40.03;20.33
35878;BME280;21982;49.804;24.072;2023-09-08T11:33:22;98002.63;;;38.20;20.97
35878;BME280;21982;49.804;24.072;2023-09-08T11:35:54;97793.44;;;35.07;22.71
35878;BME280;21982;49.804;24.072;2023-09-08T11:38:26;97938.78;;;34.93;23.84
35878;BME280;21982;49.804;24.072;2023-09-08T11:40:53;98010.69;;;34.83;24.85
35878;BME280;21982;49.804;24.072;2023-09-08T11:43:19;98019.81;;;35.04;25.04
35878;BME280;21982;49.804;24.072;2023-09-08T11:45:45;98021.19;;;35.57;24.60
35878;BME280;21982;49.804;24.072;2023-09-08T11:48:10;97924.03;;;35.48;24.92
35878;BME280;21982;49.804;24.072;2023-09-08T11:50:35;98019.09;;;36.58;24.31
35878;BME280;21982;49.804;24.072;2023-09-08T11:53:01;97870.22;;;36.49;23.86
35878;BME280;21982;49.804;24.072;2023-09-08T11:55:28;97880.75;;;37.45;23.34
35878;BME280;21982;49.804;24.072;2023-09-08T11:57:55;97989.09;;;38.59;22.05
35878;BME280;21982;49.804;24.072;2023-09-08T12:00:25;97830.41;;;37.23;22.30
35878;BME280;21982;49.804;24.072;2023-09-08T12:02:51;98024.22;;;38.14;22.68
35878;BME280;21982;49.804;24.072;2023-09-08T12:07:46;97990.50;;;39.12;22.04
35878;BME280;21982;49.804;24.072;2023-09-08T12:10:12;97916.78;;;38.76;22.06
35878;BME280;21982;49.804;24.072;2023-09-08T12:12:42;97814.25;;;38.56;21.67
35878;BME280;21982;49.804;24.072;2023-09-08T12:15:10;97991.50;;;39.90;21.53
35878;BME280;21982;49.804;24.072;2023-09-08T12:17:49;97886.44;;;39.30;21.19
35878;BME280;21982;49.804;24.072;2023-09-08T12:20:15;97917.00;;;39.18;21.79
35878;BME280;21982;49.804;24.072;2023-09-08T12:22:50;97998.34;;;39.76;21.66
35878;BME280;21982;49.804;24.072;2023-09-08T12:25:15;97994.22;;;39.19;22.91
35878;BME280;21982;49.804;24.072;2023-09-08T12:27:42;97952.47;;;39.44;21.30
35878;BME280;21982;49.804;24.072;2023-09-08T12:30:08;97962.03;;;39.31;21.13
35878;BME280;21982;49.804;24.072;2023-09-08T12:32:35;97987.06;;;38.87;21.04
35878;BME280;21982;49.804;24.072;2023-09-08T12:35:03;97983.75;;;38.66;21.60
35878;BME280;21982;49.804;24.072;2023-09-08T12:37:29;97985.56;;;39.21;21.87
35878;BME280;21982;49.804;24.072;2023-09-08T12:39:55;97944.03;;;39.56;21.31
35878;BME280;21982;49.804;24.072;2023-09-08T12:42:21;97976.31;;;39.83;21.65
35878;BME280;21982;49.804;24.072;2023-09-08T12:44:51;97909.22;;;39.24;21.03
35878;BME280;21982;49.804;24.072;2023-09-08T12:47:17;97922.50;;;39.14;20.96
35878;BME280;21982;49.804;24.072;2023-09-08T12:49:42;97977.59;;;39.35;21.36
35878;BME280;21982;49.804;24.072;2023-09-08T12:52:08;97959.94;;;39.59;21.63
35878;BME280;21982;49.804;24.072;2023-09-08T12:54:34;97955.63;;;39.62;21.48
35878;BME280;21982;49.804;24.072;2023-09-08T12:57:00;97933.13;;;38.97;21.27
35878;BME280;21982;49.804;24.072;2023-09-08T12:59:25;97844.50;;;38.02;21.45